This is the latest recevied weather packets stored in our database for station/object N4MGC. If no packets are shown the sender has not sent any weather packets the latest 10 day(s).
| Time | Temp. | Humidity | Pressure | Rain* | Wind** | Luminosity | Snow |
|---|---|---|---|---|---|---|---|
| 1777408113 | 20.56° C | 96% | 1017.4 hPa | 0 mm | - | 49 W/m² | - |
| 1777407808 | 20.56° C | 96% | 1017.3 hPa | 0 mm | - | 46 W/m² | - |
| 1777407505 | 21.11° C | 95% | 1017.7 hPa | 0 mm | - | 53 W/m² | - |
| 1777407199 | 21.11° C | 95% | 1017.9 hPa | 0 mm | - | 80 W/m² | - |
| 1777406894 | 21.11° C | 94% | 1017.9 hPa | 0 mm | - | 108 W/m² | - |
| 1777406589 | 21.11° C | 95% | 1017.9 hPa | 0 mm | - | 143 W/m² | - |
| 1777406286 | 21.11° C | 94% | 1017.7 hPa | 0 mm | - | 105 W/m² | - |
| 1777405985 | 21.67° C | 94% | 1018 hPa | 0 mm | - | 73 W/m² | - |
| 1777405681 | 21.67° C | 94% | 1018 hPa | 0 mm | - | 81 W/m² | - |
| 1777405378 | 22.22° C | 93% | 1017.9 hPa | 0 mm | - | 120 W/m² | - |
| 1777405075 | 22.22° C | 94% | 1017.8 hPa | 0 mm | - | 156 W/m² | - |
| 1777404769 | 22.22° C | 92% | 1018.1 hPa | 0 mm | - | 104 W/m² | - |
| 1777404465 | 22.78° C | 89% | 1017.9 hPa | 0 mm | - | 137 W/m² | - |
| 1777404162 | 23.89° C | 88% | 1017.7 hPa | 0 mm | - | 220 W/m² | - |
| 1777403858 | 23.33° C | 89% | 1017.9 hPa | 0 mm | - | 501 W/m² | - |
| 1777403553 | 23.33° C | 90% | 1017.8 hPa | 0 mm | - | 335 W/m² | - |
| 1777403253 | 22.78° C | 92% | 1018.2 hPa | 0 mm | - | 516 W/m² | - |
| 1777402952 | 22.78° C | 92% | 1018.5 hPa | 0 mm | - | 203 W/m² | - |
| 1777402648 | 23.33° C | 91% | 1018.8 hPa | 0 mm | - | 288 W/m² | - |
| 1777402347 | 23.33° C | 90% | 1018.5 hPa | 0 mm | - | 605 W/m² | - |
| 1777402046 | 22.78° C | 94% | 1018.7 hPa | 0 mm | - | 589 W/m² | - |
| 1777401740 | 22.22° C | 95% | 1018.7 hPa | 0 mm | - | 380 W/m² | - |
| 1777401436 | 21.67° C | 96% | 1018.8 hPa | 0 mm | - | 365 W/m² | - |
| 1777401132 | 21.11° C | 96% | 1018.6 hPa | 0 mm | - | 136 W/m² | - |
| 1777400827 | 21.11° C | 97% | 1018.7 hPa | 0 mm | - | 117 W/m² | - |
* Rain latest hour (hover to see other rain measurements)
** Current wind speed in m/s (hover to see current wind gust speed)